Time;durP1;ratioP1;P1;durP2;ratioP2;P2;SDS_P1;SDS_P2;PMS_P1;PMS_P2;Temp;Humidity;BMP_temperature;BMP_pressure;BME280_temperature;BME280_humidity;BME280_pressure;Samples;Min_cycle;Max_cycle;Signal;HPM_P1;HPM_P2
2023/10/28 00:01:45;;;;;;;0.00;0.00;;;;;;;15.68;54.49;98550.72;4459201;32;34580;-88
2023/10/28 00:04:13;;;;;;;0.00;0.00;;;;;;;15.46;55.09;98551.63;4463232;32;31438;-88
2023/10/28 00:06:41;;;;;;;0.00;0.00;;;;;;;15.17;55.83;98550.56;4467287;32;33905;-89
2023/10/28 00:09:10;;;;;;;0.10;0.10;;;;;;;15.19;56.16;98559.22;4447140;32;32983;-88
2023/10/28 00:11:39;;;;;;;0.10;0.00;;;;;;;15.50;55.46;98561.03;4447890;32;32951;-88
2023/10/28 00:14:07;;;;;;;0.00;0.00;;;;;;;15.07;56.20;98561.09;4454358;32;33959;-88
2023/10/28 00:16:36;;;;;;;0.00;0.00;;;;;;;15.33;55.79;98570.44;4446115;32;32523;-89
2023/10/28 00:19:07;;;;;;;0.00;0.00;;;;;;;15.35;56.10;98565.00;4460899;32;33813;-89
2023/10/28 00:21:35;;;;;;;0.00;0.00;;;;;;;15.48;55.46;98570.16;4458979;32;33933;-88
2023/10/28 00:24:03;;;;;;;0.00;0.00;;;;;;;15.54;55.36;98578.44;4447256;32;32653;-88
2023/10/28 00:26:31;;;;;;;0.00;0.00;;;;;;;15.34;55.74;98573.94;4474742;32;34690;-88
2023/10/28 00:28:59;;;;;;;0.05;0.05;;;;;;;15.35;55.91;98570.31;4463006;32;32691;-89
2023/10/28 00:31:28;;;;;;;0.28;0.20;;;;;;;15.24;56.32;98575.66;4455777;32;33538;-89
2023/10/28 00:33:56;;;;;;;0.37;0.37;;;;;;;15.50;55.65;98569.03;4456727;32;32700;-89
2023/10/28 00:36:24;;;;;;;0.08;0.05;;;;;;;15.76;54.78;98563.34;4450394;32;33128;-89
2023/10/28 00:38:53;;;;;;;0.00;0.00;;;;;;;15.63;54.91;98560.87;4449641;32;33683;-88
2023/10/28 00:41:21;;;;;;;0.00;0.00;;;;;;;15.51;55.13;98569.88;4462428;32;33206;-88
2023/10/28 00:43:50;;;;;;;0.00;0.00;;;;;;;15.31;55.82;98571.53;4464635;32;34280;-88
2023/10/28 00:46:18;;;;;;;0.00;0.00;;;;;;;15.47;55.63;98563.09;4449633;32;33242;-88
2023/10/28 00:48:47;;;;;;;0.30;0.20;;;;;;;15.34;55.85;98574.78;4468784;32;32574;-90
2023/10/28 00:51:15;;;;;;;1.08;0.52;;;;;;;15.74;54.77;98581.28;4450284;32;32914;-90
2023/10/28 00:53:43;;;;;;;0.00;0.00;;;;;;;15.66;54.47;98581.06;4464446;32;33435;-90
2023/10/28 00:56:12;;;;;;;0.00;0.00;;;;;;;15.51;54.84;98585.81;4458041;32;33166;-87
2023/10/28 00:58:40;;;;;;;0.10;0.10;;;;;;;15.57;54.87;98591.50;4449014;32;32990;-90
2023/10/28 01:01:10;;;;;;;0.00;0.00;;;;;;;15.52;54.77;98599.00;4448897;32;33874;-90
2023/10/28 01:03:40;;;;;;;0.65;0.52;;;;;;;15.53;54.43;98606.03;4464778;32;32500;-90
2023/10/28 01:06:09;;;;;;;0.30;0.17;;;;;;;15.45;54.85;98605.81;4453563;32;32304;-91
2023/10/28 01:08:37;;;;;;;0.00;0.00;;;;;;;15.61;54.24;98608.88;4449421;32;33000;-91
2023/10/28 01:11:06;;;;;;;0.00;0.00;;;;;;;15.44;54.76;98601.47;4462624;32;33257;-91
2023/10/28 01:13:34;;;;;;;0.00;0.00;;;;;;;15.68;54.13;98598.63;4449540;32;32915;-90
2023/10/28 01:16:04;;;;;;;0.00;0.00;;;;;;;15.40;55.01;98604.50;4452883;32;32223;-90
2023/10/28 01:18:32;;;;;;;0.52;0.43;;;;;;;15.42;55.20;98602.56;4464285;32;32319;-90
2023/10/28 01:21:13;;;;;;;3.00;1.65;;;;;;;15.19;56.02;98607.09;4448838;32;33779;-90
2023/10/28 01:23:41;;;;;;;0.00;0.00;;;;;;;15.44;55.39;98611.25;4463881;32;32498;-90
2023/10/28 01:26:09;;;;;;;0.00;0.00;;;;;;;15.14;55.80;98609.28;4451434;32;32266;-91
2023/10/28 01:28:38;;;;;;;1.05;0.77;;;;;;;15.39;55.10;98603.66;4463371;32;33958;-90
2023/10/28 01:31:08;;;;;;;0.00;0.00;;;;;;;15.23;55.44;98612.03;4449089;32;33394;-90
2023/10/28 01:33:35;;;;;;;0.00;0.00;;;;;;;15.24;55.63;98603.12;4452256;32;32893;-90
2023/10/28 01:36:04;;;;;;;2.62;0.80;;;;;;;15.36;55.42;98598.59;4451922;31;32559;-90
2023/10/28 01:38:36;;;;;;;0.00;0.00;;;;;;;15.37;55.53;98610.91;4449588;32;32732;-90
2023/10/28 01:41:04;;;;;;;0.00;0.00;;;;;;;15.25;55.85;98614.59;4449692;32;33188;-86
2023/10/28 01:43:31;;;;;;;0.00;0.00;;;;;;;14.99;56.85;98617.53;4463789;32;33936;-88
2023/10/28 01:46:00;;;;;;;0.10;0.10;;;;;;;15.20;56.26;98619.44;4450092;32;33164;-89
2023/10/28 01:48:29;;;;;;;0.00;0.00;;;;;;;15.14;56.45;98619.91;4456133;32;33036;-88
2023/10/28 01:50:57;;;;;;;0.00;0.00;;;;;;;15.00;56.75;98621.91;4463302;32;33604;-88
2023/10/28 01:53:25;;;;;;;0.40;0.40;;;;;;;14.90;57.01;98625.41;4460987;32;33656;-88
2023/10/28 01:55:53;;;;;;;1.17;0.30;;;;;;;14.50;58.62;98625.91;4455621;32;32587;-86
2023/10/28 01:58:20;;;;;;;0.00;0.00;;;;;;;14.48;58.61;98628.69;4475088;32;33869;-87
2023/10/28 02:00:49;;;;;;;0.00;0.00;;;;;;;14.36;59.13;98642.88;4461177;32;35174;-88
2023/10/28 02:03:17;;;;;;;0.03;0.03;;;;;;;14.01;59.94;98651.75;4447349;32;33377;-89
2023/10/28 02:05:46;;;;;;;0.10;0.10;;;;;;;13.90;60.73;98664.12;4450728;32;32219;-89
2023/10/28 02:08:13;;;;;;;0.10;0.10;;;;;;;14.21;59.78;98657.34;4451593;32;32777;-89
2023/10/28 02:10:42;;;;;;;0.00;0.00;;;;;;;14.24;59.52;98646.47;4464096;32;33328;-89
2023/10/28 02:13:10;;;;;;;0.00;0.00;;;;;;;14.09;59.84;98659.13;4451221;32;32833;-90
2023/10/28 02:15:38;;;;;;;0.05;0.05;;;;;;;13.98;60.38;98657.28;4453889;32;32779;-89
2023/10/28 02:18:06;;;;;;;0.00;0.00;;;;;;;13.98;60.51;98656.44;4456799;32;32879;-89
2023/10/28 02:20:35;;;;;;;0.00;0.00;;;;;;;13.89;60.69;98671.25;4449173;32;35488;-90
2023/10/28 02:23:05;;;;;;;0.05;0.05;;;;;;;13.97;60.52;98660.91;4463389;32;33654;-90
2023/10/28 02:25:33;;;;;;;0.00;0.00;;;;;;;13.83;61.15;98663.75;4455915;32;32115;-89
2023/10/28 02:28:01;;;;;;;0.00;0.00;;;;;;;13.82;61.14;98672.69;4464255;32;33944;-89
2023/10/28 02:30:30;;;;;;;0.00;0.00;;;;;;;14.32;59.69;98655.56;4444481;31;32666;-89
2023/10/28 02:32:57;;;;;;;0.00;0.00;;;;;;;13.45;62.74;98667.47;4455941;32;33951;-89
2023/10/28 02:35:27;;;;;;;0.08;0.08;;;;;;;13.43;63.31;98664.06;4448451;32;32052;-89
2023/10/28 02:37:55;;;;;;;0.00;0.00;;;;;;;13.31;63.49;98672.91;4451404;32;34559;-88
2023/10/28 02:40:23;;;;;;;0.00;0.00;;;;;;;13.50;62.99;98672.41;4446921;32;33108;-88
2023/10/28 02:42:51;;;;;;;0.00;0.00;;;;;;;13.57;62.82;98658.56;4462710;32;32810;-88
2023/10/28 02:45:19;;;;;;;0.00;0.00;;;;;;;13.58;62.95;98657.63;4464296;32;33031;-88
2023/10/28 02:47:47;;;;;;;4.47;0.43;;;;;;;13.87;61.47;98656.44;4452569;32;33223;-88
2023/10/28 02:50:17;;;;;;;1.25;0.93;;;;;;;14.22;60.79;98648.41;4457695;32;33165;-88
2023/10/28 02:52:46;;;;;;;0.00;0.00;;;;;;;13.71;62.13;98654.06;4463780;32;32825;-88
2023/10/28 02:55:15;;;;;;;0.10;0.10;;;;;;;13.63;62.69;98659.09;4459981;32;32036;-89
2023/10/28 02:57:43;;;;;;;2.08;1.25;;;;;;;13.66;62.68;98650.91;4456374;32;32646;-89
2023/10/28 03:00:12;;;;;;;0.00;0.00;;;;;;;13.36;63.68;98657.53;4455634;32;32996;-89
2023/10/28 03:02:40;;;;;;;0.00;0.00;;;;;;;13.35;63.65;98663.78;4460625;32;32779;-89
2023/10/28 03:05:09;;;;;;;0.00;0.00;;;;;;;13.82;62.07;98654.13;4462979;32;33083;-89
2023/10/28 03:07:38;;;;;;;0.00;0.00;;;;;;;13.63;62.18;98648.50;4468319;32;33617;-89
2023/10/28 03:10:06;;;;;;;0.00;0.00;;;;;;;13.57;62.82;98647.97;4464908;32;33254;-88
2023/10/28 03:12:34;;;;;;;1.67;0.10;;;;;;;13.52;63.48;98649.28;4455059;32;32635;-88
2023/10/28 03:15:02;;;;;;;0.00;0.00;;;;;;;13.61;63.12;98647.75;4462300;32;33205;-88
2023/10/28 03:17:30;;;;;;;0.00;0.00;;;;;;;13.76;61.85;98651.91;4448630;32;32994;-87
2023/10/28 03:19:58;;;;;;;0.20;0.20;;;;;;;13.45;62.95;98670.09;4455564;32;34419;-90
2023/10/28 03:22:26;;;;;;;0.47;0.47;;;;;;;13.45;63.34;98670.09;4439836;32;32683;-91
2023/10/28 03:24:54;;;;;;;0.00;0.00;;;;;;;13.43;63.50;98666.69;4454996;32;32161;-91
2023/10/28 03:27:22;;;;;;;0.00;0.00;;;;;;;13.37;64.02;98671.62;4449477;32;33630;-91
2023/10/28 03:29:52;;;;;;;0.00;0.00;;;;;;;13.45;63.97;98664.81;4450634;32;34099;-90
2023/10/28 03:32:19;;;;;;;0.05;0.05;;;;;;;13.76;61.75;98673.13;4455677;32;32383;-90
2023/10/28 03:34:49;;;;;;;0.65;0.35;;;;;;;13.33;63.66;98673.63;4455608;32;32041;-90
2023/10/28 03:37:17;;;;;;;0.30;0.30;;;;;;;13.57;62.82;98671.84;4455062;32;33611;-90
2023/10/28 03:39:47;;;;;;;0.30;0.28;;;;;;;13.26;63.89;98675.91;4437757;32;33122;-90
2023/10/28 03:42:15;;;;;;;0.05;0.05;;;;;;;13.07;64.87;98679.00;4448869;32;32684;-90
2023/10/28 03:44:43;;;;;;;0.20;0.10;;;;;;;13.17;64.27;98692.44;4453070;32;32139;-90
2023/10/28 03:47:11;;;;;;;0.35;0.35;;;;;;;13.25;64.55;98686.62;4449503;32;33903;-90
2023/10/28 03:49:39;;;;;;;0.20;0.17;;;;;;;13.14;64.71;98689.16;4449801;32;33406;-88
2023/10/28 03:52:07;;;;;;;0.00;0.00;;;;;;;13.27;64.19;98690.00;4448159;32;33650;-90
2023/10/28 03:54:35;;;;;;;0.82;0.77;;;;;;;13.18;64.39;98688.81;4461549;32;33040;-89
2023/10/28 03:57:03;;;;;;;0.00;0.00;;;;;;;13.05;64.84;98688.00;4456777;32;32758;-89
2023/10/28 03:59:32;;;;;;;0.22;0.13;;;;;;;13.10;64.53;98695.63;4463786;32;32841;-90
2023/10/28 04:02:03;;;;;;;0.00;0.00;;;;;;;13.02;65.08;98698.84;4474468;32;32875;-90
2023/10/28 04:04:32;;;;;;;0.00;0.00;;;;;;;13.04;64.00;98702.22;4451261;32;32593;-91
2023/10/28 04:06:59;;;;;;;0.00;0.00;;;;;;;13.16;63.24;98689.91;4460732;32;32241;-90
2023/10/28 04:09:27;;;;;;;0.00;0.00;;;;;;;13.04;64.08;98702.22;4451771;32;32828;-88
2023/10/28 04:11:55;;;;;;;0.00;0.00;;;;;;;13.00;63.75;98701.56;4465238;32;32867;-90
2023/10/28 04:14:24;;;;;;;0.20;0.20;;;;;;;12.91;64.04;98696.94;4464549;32;32938;-90
2023/10/28 04:16:52;;;;;;;0.00;0.00;;;;;;;12.75;64.49;98702.47;4462749;32;32737;-90
2023/10/28 04:19:20;;;;;;;0.05;0.05;;;;;;;13.01;63.28;98687.41;4450812;32;33036;-90
2023/10/28 04:21:48;;;;;;;0.10;0.10;;;;;;;12.74;63.94;98702.59;4451191;32;32782;-90
2023/10/28 04:24:18;;;;;;;0.10;0.10;;;;;;;12.69;64.18;98697.63;4463797;32;33596;-90
2023/10/28 04:26:47;;;;;;;1.98;0.22;;;;;;;12.71;64.01;98708.09;4465903;32;32925;-91
2023/10/28 04:29:14;;;;;;;0.10;0.10;;;;;;;12.66;64.34;98710.22;4449529;32;33858;-90
2023/10/28 04:31:42;;;;;;;0.00;0.00;;;;;;;12.73;63.98;98707.03;4451888;32;33587;-90
2023/10/28 04:34:11;;;;;;;0.00;0.00;;;;;;;12.68;64.03;98717.12;4453311;32;33410;-90
2023/10/28 04:36:39;;;;;;;0.13;0.00;;;;;;;12.54;64.40;98712.78;4451488;32;32743;-90
2023/10/28 04:39:07;;;;;;;0.20;0.20;;;;;;;12.46;64.34;98717.75;4451940;32;33584;-90
2023/10/28 04:41:36;;;;;;;0.52;0.32;;;;;;;12.71;62.71;98723.97;4453518;32;32324;-91
2023/10/28 04:44:04;;;;;;;0.00;0.00;;;;;;;12.44;63.77;98724.09;4450457;32;32392;-91
2023/10/28 04:46:32;;;;;;;0.70;0.10;;;;;;;12.47;64.04;98718.56;4449285;32;32813;-90
2023/10/28 04:49:00;;;;;;;0.30;0.30;;;;;;;12.35;64.01;98720.28;4464062;32;33431;-90
2023/10/28 04:51:28;;;;;;;1.10;0.32;;;;;;;12.37;64.09;98718.38;4450081;32;33139;-89
2023/10/28 04:53:56;;;;;;;0.00;0.00;;;;;;;12.30;64.48;98719.75;4461902;32;32288;-90
2023/10/28 04:56:24;;;;;;;0.20;0.20;;;;;;;12.25;64.44;98714.75;4448531;32;32881;-89
2023/10/28 04:58:52;;;;;;;0.45;0.45;;;;;;;12.24;63.97;98723.62;4463923;32;32841;-89
2023/10/28 05:01:21;;;;;;;0.22;0.22;;;;;;;12.20;64.48;98726.59;4462646;32;32925;-89
2023/10/28 05:03:50;;;;;;;1.60;0.45;;;;;;;12.23;63.90;98721.09;4476708;32;33013;-89
2023/10/28 05:06:19;;;;;;;0.62;0.62;;;;;;;12.40;63.30;98712.87;4454507;32;32860;-89
2023/10/28 05:08:47;;;;;;;0.00;0.00;;;;;;;12.38;62.93;98719.22;4452165;32;33995;-90
2023/10/28 05:11:16;;;;;;;0.15;0.15;;;;;;;12.23;63.86;98736.97;4457781;32;33047;-90
2023/10/28 05:13:43;;;;;;;2.47;1.08;;;;;;;12.15;64.29;98728.69;4462879;32;33351;-90
2023/10/28 05:16:12;;;;;;;0.00;0.00;;;;;;;12.17;64.29;98729.47;4461227;32;33037;-90
2023/10/28 05:18:41;;;;;;;0.10;0.10;;;;;;;12.17;64.08;98742.69;4464887;32;32737;-89
2023/10/28 05:21:10;;;;;;;0.80;0.57;;;;;;;12.32;63.70;98740.81;4450420;32;33285;-90
2023/10/28 05:23:38;;;;;;;0.52;0.52;;;;;;;12.20;64.42;98742.47;4458135;32;32249;-90
2023/10/28 05:26:08;;;;;;;0.00;0.00;;;;;;;12.39;63.15;98748.25;4449120;32;33495;-89
2023/10/28 05:28:36;;;;;;;0.70;0.70;;;;;;;12.44;62.31;98753.22;4462554;32;34647;-87
2023/10/28 05:31:04;;;;;;;0.00;0.00;;;;;;;12.17;63.59;98748.81;4456013;32;32898;-86
2023/10/28 05:33:32;;;;;;;1.45;1.35;;;;;;;12.15;63.78;98757.81;4455306;32;32214;-87
2023/10/28 05:35:59;;;;;;;1.00;0.98;;;;;;;12.05;64.29;98771.66;4453097;31;33284;-87
2023/10/28 05:38:27;;;;;;;0.10;0.00;;;;;;;11.99;64.45;98777.34;4470540;32;33975;-87
2023/10/28 05:40:56;;;;;;;0.15;0.15;;;;;;;11.97;64.51;98787.19;4461955;32;33223;-86
2023/10/28 05:43:23;;;;;;;0.40;0.20;;;;;;;11.94;64.63;98790.03;4464587;32;33221;-87
2023/10/28 05:45:51;;;;;;;0.57;0.50;;;;;;;11.93;64.95;98800.72;4463802;32;33870;-87
2023/10/28 05:48:19;;;;;;;0.17;0.17;;;;;;;11.83;66.37;98800.47;4455366;32;32680;-87
2023/10/28 05:50:47;;;;;;;0.22;0.22;;;;;;;12.14;64.91;98811.69;4456051;32;32929;-86
2023/10/28 05:53:15;;;;;;;0.20;0.15;;;;;;;12.57;63.82;98813.16;4452168;32;32177;-86
2023/10/28 05:55:43;;;;;;;0.40;0.40;;;;;;;12.69;63.89;98819.44;4450034;32;32629;-86
2023/10/28 05:58:11;;;;;;;5.82;2.62;;;;;;;12.49;64.70;98823.44;4453067;32;32930;-86
2023/10/28 06:00:41;;;;;;;0.00;0.00;;;;;;;12.48;65.87;98819.06;4456854;32;33672;-86
2023/10/28 06:03:09;;;;;;;0.35;0.35;;;;;;;12.34;66.71;98821.78;4462983;32;32487;-87
2023/10/28 06:05:37;;;;;;;0.00;0.00;;;;;;;12.08;67.73;98828.81;4453543;32;32948;-86
2023/10/28 06:08:11;;;;;;;0.00;0.00;;;;;;;12.33;67.62;98837.78;4462441;32;33803;-86
2023/10/28 06:10:39;;;;;;;0.08;0.08;;;;;;;12.44;67.44;98833.50;4453219;32;33758;-86
2023/10/28 06:13:08;;;;;;;0.85;0.55;;;;;;;12.76;67.45;98843.69;4459266;32;33166;-87
2023/10/28 06:15:37;;;;;;;0.52;0.47;;;;;;;12.78;67.27;98844.47;4464494;32;32287;-88
2023/10/28 06:18:05;;;;;;;0.88;0.88;;;;;;;12.66;68.10;98843.47;4452315;32;33512;-87
2023/10/28 06:20:33;;;;;;;0.37;0.22;;;;;;;12.70;68.51;98844.13;4461471;32;34159;-87
2023/10/28 06:23:04;;;;;;;1.67;1.55;;;;;;;12.72;68.85;98858.97;4462190;32;32637;-87
2023/10/28 06:25:34;;;;;;;0.00;0.00;;;;;;;12.79;69.13;98851.44;4449346;32;32632;-87
2023/10/28 06:28:05;;;;;;;0.08;0.08;;;;;;;12.93;69.21;98848.72;4450396;32;33951;-87
2023/10/28 06:30:34;;;;;;;0.73;0.73;;;;;;;12.94;69.37;98854.84;4461550;32;32714;-86
2023/10/28 06:33:02;;;;;;;0.22;0.22;;;;;;;13.07;69.34;98858.37;4473874;32;32132;-86
2023/10/28 06:35:30;;;;;;;0.40;0.40;;;;;;;13.24;69.18;98847.47;4462859;31;33758;-86
2023/10/28 06:37:59;;;;;;;0.10;0.10;;;;;;;13.48;68.79;98855.53;4469432;32;32728;-86
2023/10/28 06:40:28;;;;;;;0.20;0.15;;;;;;;13.88;67.88;98849.16;4456706;32;32917;-89
2023/10/28 06:42:56;;;;;;;0.62;0.62;;;;;;;14.03;66.53;98859.50;4462039;32;32709;-89
2023/10/28 06:45:25;;;;;;;0.22;0.22;;;;;;;13.94;66.83;98860.16;4452004;32;32872;-90
2023/10/28 06:47:53;;;;;;;0.20;0.20;;;;;;;13.92;66.96;98875.38;4465407;32;33954;-91
2023/10/28 06:50:21;;;;;;;0.37;0.37;;;;;;;14.08;66.03;98869.78;4449935;32;32704;-89
2023/10/28 06:52:49;;;;;;;0.00;0.00;;;;;;;13.87;66.89;98877.50;4447968;32;32675;-88
2023/10/28 06:55:18;;;;;;;1.27;0.68;;;;;;;13.92;66.86;98870.06;4450343;32;33825;-88
2023/10/28 06:57:45;;;;;;;0.62;0.52;;;;;;;14.07;66.29;98876.91;4459974;32;33059;-88
2023/10/28 07:00:14;;;;;;;0.32;0.32;;;;;;;13.83;67.42;98882.19;4450811;32;32757;-88
2023/10/28 07:02:43;;;;;;;0.00;0.00;;;;;;;14.00;67.10;98878.28;4461367;32;33054;-88
2023/10/28 07:05:12;;;;;;;0.10;0.10;;;;;;;14.21;66.62;98877.72;4447219;32;32659;-88
2023/10/28 07:07:41;;;;;;;0.95;0.65;;;;;;;13.90;67.75;98895.84;4452875;32;33239;-86
2023/10/28 07:10:09;;;;;;;0.85;0.85;;;;;;;14.23;67.69;98892.56;4449125;32;33002;-87
2023/10/28 07:12:37;;;;;;;0.40;0.40;;;;;;;14.47;67.42;98900.53;4448292;32;32723;-87
2023/10/28 07:15:10;;;;;;;4.57;1.75;;;;;;;13.97;69.80;98910.37;4460707;32;33984;-88
2023/10/28 07:17:39;;;;;;;0.50;0.50;;;;;;;14.02;69.64;98908.25;4461133;32;36506;-87
2023/10/28 07:20:07;;;;;;;0.10;0.10;;;;;;;13.98;70.01;98919.19;4445724;32;32606;-87
2023/10/28 07:22:35;;;;;;;0.40;0.40;;;;;;;14.39;68.87;98923.31;4462228;32;33879;-87
2023/10/28 07:25:04;;;;;;;0.80;0.80;;;;;;;14.38;69.57;98933.06;4450105;32;33347;-87
2023/10/28 07:27:33;;;;;;;4.20;1.25;;;;;;;14.47;68.61;98937.72;4459813;32;32986;-87
2023/10/28 07:30:02;;;;;;;0.57;0.57;;;;;;;14.61;68.09;98950.00;4470370;32;33098;-87
2023/10/28 07:32:31;;;;;;;0.05;0.05;;;;;;;14.52;68.53;98961.31;4460210;32;32652;-87
2023/10/28 07:34:58;;;;;;;0.28;0.10;;;;;;;14.68;67.76;98959.25;4463307;32;32631;-86
2023/10/28 07:37:27;;;;;;;1.55;1.17;;;;;;;14.58;68.38;98953.75;4451559;32;32264;-86
2023/10/28 07:39:54;;;;;;;0.17;0.10;;;;;;;14.71;68.18;98952.84;4462163;31;33955;-87
2023/10/28 07:42:23;;;;;;;0.10;0.10;;;;;;;14.31;69.81;98953.94;4452708;32;32598;-87
2023/10/28 07:45:19;;;;;;;0.50;0.45;;;;;;;14.64;69.48;98946.31;4457951;32;34798;-87
2023/10/28 07:47:50;;;;;;;1.70;0.90;;;;;;;14.57;70.31;98944.09;4478637;32;33336;-87
2023/10/28 07:50:18;;;;;;;1.87;1.23;;;;;;;14.75;70.25;98935.72;4448484;32;32604;-87
2023/10/28 07:52:46;;;;;;;0.98;0.70;;;;;;;15.43;68.64;98934.97;4463404;32;34616;-86
2023/10/28 07:55:14;;;;;;;0.00;0.00;;;;;;;15.62;67.71;98935.22;4461137;32;32946;-87
2023/10/28 07:57:43;;;;;;;0.10;0.10;;;;;;;15.48;68.18;98937.25;4466406;32;33005;-87
2023/10/28 08:00:11;;;;;;;0.40;0.40;;;;;;;15.45;68.09;98943.66;4448227;32;32860;-87
2023/10/28 08:02:46;;;;;;;5.87;1.15;;;;;;;15.51;67.59;98942.31;4451585;32;32184;-87
2023/10/28 08:05:14;;;;;;;0.55;0.30;;;;;;;15.67;67.05;98944.69;4459049;32;33193;-87
2023/10/28 08:07:42;;;;;;;0.77;0.77;;;;;;;15.81;66.58;98955.09;4458698;32;32987;-87
2023/10/28 08:10:10;;;;;;;0.75;0.52;;;;;;;15.96;66.32;98956.53;4446289;32;33695;-87
2023/10/28 08:12:39;;;;;;;0.20;0.20;;;;;;;16.16;65.73;98964.75;4473120;32;33214;-87
2023/10/28 08:15:08;;;;;;;0.60;0.60;;;;;;;16.48;64.46;98955.03;4462126;32;32841;-87
2023/10/28 08:17:36;;;;;;;1.37;0.88;;;;;;;16.71;63.46;98949.59;4465946;32;34118;-88
2023/10/28 08:20:04;;;;;;;1.67;1.20;;;;;;;16.74;63.48;98952.06;4462213;32;32769;-87
2023/10/28 08:22:33;;;;;;;0.03;0.03;;;;;;;16.82;63.33;98958.47;4448167;32;32251;-88
2023/10/28 08:25:04;;;;;;;0.10;0.10;;;;;;;16.83;63.49;98964.63;4459651;32;33017;-88
2023/10/28 08:27:32;;;;;;;0.30;0.30;;;;;;;16.79;63.95;98973.84;4446892;32;33630;-88
2023/10/28 08:30:01;;;;;;;2.17;0.70;;;;;;;16.78;63.56;98973.00;4445402;32;33418;-87
2023/10/28 08:32:32;;;;;;;0.13;0.13;;;;;;;16.73;63.52;98969.03;4461259;32;33445;-87
2023/10/28 08:35:00;;;;;;;0.08;0.08;;;;;;;16.84;63.41;98976.97;4454258;32;32802;-88
2023/10/28 08:37:28;;;;;;;0.17;0.17;;;;;;;17.26;62.15;98977.06;4460462;32;34186;-88
2023/10/28 08:39:55;;;;;;;2.15;0.47;;;;;;;17.51;61.75;98987.31;4454003;32;33509;-87
2023/10/28 08:42:24;;;;;;;0.62;0.62;;;;;;;17.24;63.10;98987.87;4461467;32;31703;-88
2023/10/28 08:44:52;;;;;;;0.57;0.57;;;;;;;17.57;61.88;98992.16;4460318;32;33068;-89
2023/10/28 08:47:22;;;;;;;1.73;1.10;;;;;;;17.61;61.87;99003.41;4453519;32;33850;-89
2023/10/28 08:49:51;;;;;;;2.55;0.93;;;;;;;17.99;60.09;99005.47;4449517;32;33833;-88
2023/10/28 08:52:21;;;;;;;0.70;0.52;;;;;;;17.95;60.73;99004.06;4446820;32;33519;-89
2023/10/28 08:54:49;;;;;;;0.00;0.00;;;;;;;17.81;61.23;99005.25;4453493;32;33509;-88
2023/10/28 08:57:20;;;;;;;0.65;0.65;;;;;;;17.91;61.00;99013.31;4456170;32;33066;-88
2023/10/28 08:59:47;;;;;;;0.82;0.65;;;;;;;17.89;61.50;99007.25;4455209;32;33710;-89
2023/10/28 09:02:18;;;;;;;0.30;0.17;;;;;;;17.87;61.80;99011.91;4462757;32;33281;-90
2023/10/28 09:04:46;;;;;;;0.77;0.50;;;;;;;17.84;61.64;99017.50;4460240;32;32984;-89
2023/10/28 09:07:14;;;;;;;2.53;0.52;;;;;;;17.97;60.97;99019.97;4463263;32;33156;-89
2023/10/28 09:09:42;;;;;;;0.37;0.20;;;;;;;18.13;60.78;99023.81;4456508;32;32935;-89
2023/10/28 09:12:12;;;;;;;1.33;1.20;;;;;;;18.45;59.76;99025.50;4464703;32;35519;-89
2023/10/28 09:14:40;;;;;;;0.28;0.28;;;;;;;18.56;59.40;99027.22;4454593;32;33119;-89
2023/10/28 09:17:09;;;;;;;0.52;0.40;;;;;;;18.57;59.25;99029.75;4458251;32;34350;-89
2023/10/28 09:19:38;;;;;;;0.30;0.30;;;;;;;18.56;59.42;99029.88;4441695;32;32973;-89
2023/10/28 09:22:06;;;;;;;0.73;0.65;;;;;;;18.77;57.23;99024.50;4461402;32;32071;-89
2023/10/28 09:24:33;;;;;;;0.00;0.00;;;;;;;18.39;58.75;99028.72;4461836;32;32758;-89
2023/10/28 09:27:01;;;;;;;0.00;0.00;;;;;;;18.40;58.83;99028.56;4449979;32;33191;-90
2023/10/28 09:29:30;;;;;;;0.95;0.20;;;;;;;18.72;57.98;99032.94;4453584;32;33353;-89
2023/10/28 09:32:09;;;;;;;2.37;0.40;;;;;;;18.50;58.94;99038.44;4461618;32;33231;-89
2023/10/28 09:34:38;;;;;;;0.20;0.20;;;;;;;18.56;58.77;99028.09;4450953;32;33367;-89
2023/10/28 09:37:06;;;;;;;0.17;0.17;;;;;;;18.49;58.94;99040.28;4460233;32;34059;-89
2023/10/28 09:39:35;;;;;;;0.70;0.37;;;;;;;18.57;57.24;99034.28;4456819;32;32359;-89
2023/10/28 09:42:04;;;;;;;0.17;0.17;;;;;;;18.82;56.58;99040.97;4450628;32;32271;-90
2023/10/28 09:44:34;;;;;;;0.00;0.00;;;;;;;19.10;55.09;99026.78;4450275;32;33507;-89
2023/10/28 09:47:07;;;;;;;0.00;0.00;;;;;;;18.94;55.09;99034.50;4451149;32;33033;-89
2023/10/28 09:49:41;;;;;;;0.52;0.45;;;;;;;18.93;55.62;99028.31;4463964;32;33515;-89
2023/10/28 09:52:11;;;;;;;0.10;0.00;;;;;;;18.99;54.07;99034.94;4451094;32;32105;-89
2023/10/28 09:54:41;;;;;;;0.57;0.55;;;;;;;19.03;53.25;99025.63;4461217;32;32765;-89
2023/10/28 09:57:10;;;;;;;0.10;0.00;;;;;;;18.90;54.89;99033.13;4448566;32;33205;-89
2023/10/28 09:59:44;;;;;;;0.43;0.10;;;;;;;19.01;53.84;99022.28;4462246;32;32727;-89
2023/10/28 10:02:39;;;;;;;0.00;0.00;;;;;;;18.92;54.01;99023.09;4450845;32;32374;-90
2023/10/28 10:05:15;;;;;;;0.10;0.10;;;;;;;18.91;54.10;99032.13;4469905;32;32830;-89
2023/10/28 10:07:44;;;;;;;0.00;0.00;;;;;;;19.00;52.74;99033.13;4460634;32;34408;-89
2023/10/28 10:10:20;;;;;;;0.10;0.10;;;;;;;19.01;53.45;99026.78;4465994;32;34034;-89
2023/10/28 10:12:50;;;;;;;0.20;0.10;;;;;;;18.37;55.12;99018.19;4466795;32;33189;-88
2023/10/28 10:15:19;;;;;;;0.00;0.00;;;;;;;18.46;54.89;99021.84;4449965;32;33464;-89
2023/10/28 10:18:09;;;;;;;0.08;0.08;;;;;;;19.01;53.32;99026.78;4472801;32;34240;-89
2023/10/28 10:20:46;;;;;;;0.00;0.00;;;;;;;19.01;54.38;99021.44;4457145;32;32354;-89
2023/10/28 10:23:14;;;;;;;0.00;0.00;;;;;;;18.79;51.67;99022.50;4456480;32;32340;-89
2023/10/28 10:25:43;;;;;;;0.00;0.00;;;;;;;18.63;52.03;99028.38;4465134;32;33083;-89
2023/10/28 10:28:18;;;;;;;0.00;0.00;;;;;;;18.76;52.05;99017.47;4461717;31;34582;-89
2023/10/28 10:30:46;;;;;;;0.00;0.00;;;;;;;18.93;52.57;99006.06;4450741;32;33005;-89
2023/10/28 10:33:24;;;;;;;0.00;0.00;;;;;;;19.06;52.96;99009.31;4463386;32;32062;-90
2023/10/28 10:35:52;;;;;;;0.00;0.00;;;;;;;19.37;50.90;99003.81;4450718;32;33906;-89
2023/10/28 10:38:29;;;;;;;0.55;0.25;;;;;;;19.50;51.10;99012.41;4453402;32;32995;-89
2023/10/28 10:41:00;;;;;;;0.00;0.00;;;;;;;19.48;51.05;99019.72;4460812;32;32643;-90
2023/10/28 10:43:29;;;;;;;0.35;0.35;;;;;;;19.43;51.83;99022.00;4450586;32;32504;-89
2023/10/28 10:45:58;;;;;;;0.03;0.03;;;;;;;19.64;49.69;99025.37;4456465;32;33312;-90
2023/10/28 10:48:26;;;;;;;0.00;0.00;;;;;;;19.63;49.60;99034.41;4449300;32;33933;-89
2023/10/28 10:50:56;;;;;;;0.15;0.15;;;;;;;20.03;50.63;99024.44;4462419;32;33458;-89
2023/10/28 10:53:24;;;;;;;0.00;0.00;;;;;;;20.31;50.39;99020.78;4464003;32;33126;-89
2023/10/28 10:55:52;;;;;;;0.20;0.00;;;;;;;20.41;47.91;99023.44;4450202;32;33095;-89
2023/10/28 10:58:20;;;;;;;0.75;0.35;;;;;;;20.87;47.21;99017.13;4465302;32;33388;-90
2023/10/28 11:00:52;;;;;;;0.00;0.00;;;;;;;20.93;47.14;99011.16;4456515;32;33090;-89
2023/10/28 11:03:21;;;;;;;0.10;0.10;;;;;;;21.05;46.63;99013.62;4463876;32;32611;-89
2023/10/28 11:05:51;;;;;;;0.00;0.00;;;;;;;20.88;47.57;99020.66;4450893;32;32464;-89
2023/10/28 11:08:19;;;;;;;0.10;0.10;;;;;;;20.85;47.40;99021.81;4451027;32;33037;-89
2023/10/28 11:10:47;;;;;;;0.00;0.00;;;;;;;20.56;47.83;99021.16;4462837;32;32861;-89
2023/10/28 11:13:15;;;;;;;0.00;0.00;;;;;;;20.58;49.22;99011.94;4464952;32;33028;-89
2023/10/28 11:15:42;;;;;;;0.05;0.05;;;;;;;20.58;48.44;99003.91;4473022;32;33551;-89
2023/10/28 11:18:11;;;;;;;0.10;0.00;;;;;;;20.53;48.27;98998.16;4455624;32;34198;-89
2023/10/28 11:20:42;;;;;;;0.17;0.17;;;;;;;20.97;46.88;98998.28;4450408;32;32736;-89
2023/10/28 11:23:09;;;;;;;0.20;0.20;;;;;;;21.15;44.83;98993.75;4462507;32;32208;-89
2023/10/28 11:25:37;;;;;;;0.00;0.00;;;;;;;20.72;47.55;98994.50;4469426;32;33231;-89
2023/10/28 11:28:06;;;;;;;0.03;0.00;;;;;;;21.23;45.63;98988.47;4465305;32;33623;-89
2023/10/28 11:30:34;;;;;;;0.00;0.00;;;;;;;21.49;45.04;98990.38;4462331;32;33418;-89
2023/10/28 11:33:07;;;;;;;0.00;0.00;;;;;;;20.99;45.47;98990.94;4462010;32;32323;-89
2023/10/28 11:35:36;;;;;;;0.37;0.35;;;;;;;21.14;45.37;98994.75;4462676;32;32894;-89
2023/10/28 11:38:04;;;;;;;3.45;0.50;;;;;;;20.96;45.44;99001.97;4456607;32;33092;-89
2023/10/28 11:40:33;;;;;;;0.20;0.03;;;;;;;21.05;45.62;98998.38;4452271;32;32653;-89
2023/10/28 11:43:09;;;;;;;0.03;0.00;;;;;;;21.29;46.20;98995.06;4456967;32;32137;-89